sensor_id;sensor_type;location;lat;lon;timestamp;P1;durP1;ratioP1;P2;durP2;ratioP2
46363;SDS011;32071;49.036;9.344;2023-01-26T00:01:06;27.73;;;11.00;;
46363;SDS011;32071;49.036;9.344;2023-01-26T00:03:39;22.07;;;10.87;;
46363;SDS011;32071;49.036;9.344;2023-01-26T00:06:06;25.40;;;11.17;;
46363;SDS011;32071;49.036;9.344;2023-01-26T00:08:36;27.13;;;10.50;;
46363;SDS011;32071;49.036;9.344;2023-01-26T00:11:06;19.00;;;9.97;;
46363;SDS011;32071;49.036;9.344;2023-01-26T00:13:33;25.33;;;11.93;;
46363;SDS011;32071;49.036;9.344;2023-01-26T00:15:59;22.13;;;10.90;;
46363;SDS011;32071;49.036;9.344;2023-01-26T00:18:25;26.70;;;11.50;;
46363;SDS011;32071;49.036;9.344;2023-01-26T00:20:57;31.73;;;11.10;;
46363;SDS011;32071;49.036;9.344;2023-01-26T00:23:25;20.67;;;10.37;;
46363;SDS011;32071;49.036;9.344;2023-01-26T00:25:52;26.70;;;11.40;;
46363;SDS011;32071;49.036;9.344;2023-01-26T00:28:18;28.80;;;12.13;;
46363;SDS011;32071;49.036;9.344;2023-01-26T00:30:43;24.00;;;9.87;;
46363;SDS011;32071;49.036;9.344;2023-01-26T00:33:09;22.60;;;10.50;;
46363;SDS011;32071;49.036;9.344;2023-01-26T00:35:34;22.90;;;10.80;;
46363;SDS011;32071;49.036;9.344;2023-01-26T00:38:00;22.60;;;10.47;;
46363;SDS011;32071;49.036;9.344;2023-01-26T00:40:26;24.73;;;10.50;;
46363;SDS011;32071;49.036;9.344;2023-01-26T00:42:51;25.60;;;9.90;;
46363;SDS011;32071;49.036;9.344;2023-01-26T00:45:18;19.53;;;8.77;;
46363;SDS011;32071;49.036;9.344;2023-01-26T00:47:44;27.77;;;10.70;;
46363;SDS011;32071;49.036;9.344;2023-01-26T00:50:10;25.40;;;11.50;;
46363;SDS011;32071;49.036;9.344;2023-01-26T00:52:36;18.83;;;9.80;;
46363;SDS011;32071;49.036;9.344;2023-01-26T00:55:02;21.10;;;9.77;;
46363;SDS011;32071;49.036;9.344;2023-01-26T00:57:27;26.00;;;10.60;;
46363;SDS011;32071;49.036;9.344;2023-01-26T00:59:53;33.33;;;12.07;;
46363;SDS011;32071;49.036;9.344;2023-01-26T01:02:19;23.80;;;11.40;;
46363;SDS011;32071;49.036;9.344;2023-01-26T01:04:44;30.70;;;12.57;;
46363;SDS011;32071;49.036;9.344;2023-01-26T01:07:10;26.60;;;11.13;;
46363;SDS011;32071;49.036;9.344;2023-01-26T01:09:35;22.03;;;10.80;;
46363;SDS011;32071;49.036;9.344;2023-01-26T01:12:01;20.77;;;9.23;;
46363;SDS011;32071;49.036;9.344;2023-01-26T01:14:26;27.50;;;11.60;;
46363;SDS011;32071;49.036;9.344;2023-01-26T01:16:52;25.87;;;12.17;;
46363;SDS011;32071;49.036;9.344;2023-01-26T01:19:18;27.40;;;11.50;;
46363;SDS011;32071;49.036;9.344;2023-01-26T01:21:43;31.30;;;13.33;;
46363;SDS011;32071;49.036;9.344;2023-01-26T01:24:10;29.33;;;12.50;;
46363;SDS011;32071;49.036;9.344;2023-01-26T01:26:36;29.27;;;11.23;;
46363;SDS011;32071;49.036;9.344;2023-01-26T01:29:02;26.40;;;12.33;;
46363;SDS011;32071;49.036;9.344;2023-01-26T01:31:28;21.37;;;10.80;;
46363;SDS011;32071;49.036;9.344;2023-01-26T01:33:54;24.37;;;11.93;;
46363;SDS011;32071;49.036;9.344;2023-01-26T01:36:20;28.40;;;12.37;;
46363;SDS011;32071;49.036;9.344;2023-01-26T01:38:46;24.17;;;11.30;;
46363;SDS011;32071;49.036;9.344;2023-01-26T01:41:14;28.60;;;10.57;;
46363;SDS011;32071;49.036;9.344;2023-01-26T01:43:41;22.77;;;9.50;;
46363;SDS011;32071;49.036;9.344;2023-01-26T01:51:40;31.70;;;12.30;;
46363;SDS011;32071;49.036;9.344;2023-01-26T01:54:10;24.10;;;12.43;;
46363;SDS011;32071;49.036;9.344;2023-01-26T01:56:40;25.90;;;11.97;;
46363;SDS011;32071;49.036;9.344;2023-01-26T01:59:11;26.20;;;11.97;;
46363;SDS011;32071;49.036;9.344;2023-01-26T02:01:37;22.67;;;10.27;;
46363;SDS011;32071;49.036;9.344;2023-01-26T02:04:04;22.70;;;10.70;;
46363;SDS011;32071;49.036;9.344;2023-01-26T02:06:35;21.70;;;10.30;;
46363;SDS011;32071;49.036;9.344;2023-01-26T02:09:07;22.60;;;9.80;;
46363;SDS011;32071;49.036;9.344;2023-01-26T02:11:55;20.80;;;9.10;;
46363;SDS011;32071;49.036;9.344;2023-01-26T02:14:22;21.83;;;8.63;;
46363;SDS011;32071;49.036;9.344;2023-01-26T02:16:49;26.83;;;10.90;;
46363;SDS011;32071;49.036;9.344;2023-01-26T02:19:25;25.37;;;10.93;;
46363;SDS011;32071;49.036;9.344;2023-01-26T02:22:06;21.37;;;9.60;;
46363;SDS011;32071;49.036;9.344;2023-01-26T02:24:37;27.03;;;10.67;;
46363;SDS011;32071;49.036;9.344;2023-01-26T02:27:04;26.23;;;10.10;;
46363;SDS011;32071;49.036;9.344;2023-01-26T02:29:30;19.20;;;9.10;;
46363;SDS011;32071;49.036;9.344;2023-01-26T02:31:56;26.57;;;11.43;;
46363;SDS011;32071;49.036;9.344;2023-01-26T02:34:21;23.90;;;11.13;;
46363;SDS011;32071;49.036;9.344;2023-01-26T02:36:59;20.00;;;10.03;;
46363;SDS011;32071;49.036;9.344;2023-01-26T02:39:29;23.40;;;10.50;;
46363;SDS011;32071;49.036;9.344;2023-01-26T02:41:58;25.83;;;10.63;;
46363;SDS011;32071;49.036;9.344;2023-01-26T02:44:42;25.50;;;10.37;;
46363;SDS011;32071;49.036;9.344;2023-01-26T02:47:12;26.30;;;10.00;;
46363;SDS011;32071;49.036;9.344;2023-01-26T02:49:40;24.83;;;10.60;;
46363;SDS011;32071;49.036;9.344;2023-01-26T02:52:16;22.00;;;10.40;;
46363;SDS011;32071;49.036;9.344;2023-01-26T02:54:47;19.30;;;10.27;;
46363;SDS011;32071;49.036;9.344;2023-01-26T02:57:31;23.07;;;10.10;;
46363;SDS011;32071;49.036;9.344;2023-01-26T02:59:59;22.20;;;10.50;;
46363;SDS011;32071;49.036;9.344;2023-01-26T03:02:24;22.70;;;10.00;;
46363;SDS011;32071;49.036;9.344;2023-01-26T03:04:50;22.87;;;10.27;;
46363;SDS011;32071;49.036;9.344;2023-01-26T03:07:16;22.90;;;9.17;;
46363;SDS011;32071;49.036;9.344;2023-01-26T03:09:42;24.50;;;9.67;;
46363;SDS011;32071;49.036;9.344;2023-01-26T03:12:07;21.20;;;9.00;;
46363;SDS011;32071;49.036;9.344;2023-01-26T03:14:33;20.50;;;9.03;;
46363;SDS011;32071;49.036;9.344;2023-01-26T03:16:58;22.73;;;10.13;;
46363;SDS011;32071;49.036;9.344;2023-01-26T03:19:24;19.50;;;9.47;;
46363;SDS011;32071;49.036;9.344;2023-01-26T03:22:09;26.30;;;10.47;;
46363;SDS011;32071;49.036;9.344;2023-01-26T03:24:53;21.07;;;10.13;;
46363;SDS011;32071;49.036;9.344;2023-01-26T03:27:42;25.03;;;10.27;;
46363;SDS011;32071;49.036;9.344;2023-01-26T03:30:12;28.83;;;11.33;;
46363;SDS011;32071;49.036;9.344;2023-01-26T03:32:39;24.27;;;10.40;;
46363;SDS011;32071;49.036;9.344;2023-01-26T03:35:05;26.57;;;11.30;;
46363;SDS011;32071;49.036;9.344;2023-01-26T03:37:31;24.37;;;10.97;;
46363;SDS011;32071;49.036;9.344;2023-01-26T03:40:04;25.20;;;10.77;;
46363;SDS011;32071;49.036;9.344;2023-01-26T03:42:49;26.20;;;11.33;;
46363;SDS011;32071;49.036;9.344;2023-01-26T03:45:33;23.43;;;9.80;;
46363;SDS011;32071;49.036;9.344;2023-01-26T03:48:17;28.70;;;10.23;;
46363;SDS011;32071;49.036;9.344;2023-01-26T03:51:01;21.63;;;11.30;;
46363;SDS011;32071;49.036;9.344;2023-01-26T03:53:45;22.20;;;9.60;;
46363;SDS011;32071;49.036;9.344;2023-01-26T03:56:29;19.50;;;9.37;;
46363;SDS011;32071;49.036;9.344;2023-01-26T03:58:59;19.30;;;8.30;;
46363;SDS011;32071;49.036;9.344;2023-01-26T04:01:33;20.67;;;9.53;;
46363;SDS011;32071;49.036;9.344;2023-01-26T04:04:00;22.63;;;9.57;;
46363;SDS011;32071;49.036;9.344;2023-01-26T04:06:44;24.20;;;9.97;;
46363;SDS011;32071;49.036;9.344;2023-01-26T04:09:30;26.47;;;10.70;;
46363;SDS011;32071;49.036;9.344;2023-01-26T04:11:57;26.13;;;10.47;;
46363;SDS011;32071;49.036;9.344;2023-01-26T04:14:23;26.13;;;10.60;;
46363;SDS011;32071;49.036;9.344;2023-01-26T04:17:07;19.73;;;9.23;;
46363;SDS011;32071;49.036;9.344;2023-01-26T04:19:51;22.53;;;9.73;;
46363;SDS011;32071;49.036;9.344;2023-01-26T04:22:36;27.07;;;10.47;;
46363;SDS011;32071;49.036;9.344;2023-01-26T04:25:13;23.03;;;9.63;;
46363;SDS011;32071;49.036;9.344;2023-01-26T04:27:41;26.20;;;10.60;;
46363;SDS011;32071;49.036;9.344;2023-01-26T04:30:08;24.83;;;10.80;;
46363;SDS011;32071;49.036;9.344;2023-01-26T04:32:35;30.77;;;10.17;;
46363;SDS011;32071;49.036;9.344;2023-01-26T04:35:01;21.53;;;9.60;;
46363;SDS011;32071;49.036;9.344;2023-01-26T04:37:26;18.83;;;9.27;;
46363;SDS011;32071;49.036;9.344;2023-01-26T04:39:52;25.13;;;10.70;;
46363;SDS011;32071;49.036;9.344;2023-01-26T04:42:18;17.83;;;8.87;;
46363;SDS011;32071;49.036;9.344;2023-01-26T04:44:43;33.53;;;11.80;;
46363;SDS011;32071;49.036;9.344;2023-01-26T04:47:09;26.67;;;9.73;;
46363;SDS011;32071;49.036;9.344;2023-01-26T04:49:34;24.70;;;11.37;;
46363;SDS011;32071;49.036;9.344;2023-01-26T04:52:00;27.57;;;10.70;;
46363;SDS011;32071;49.036;9.344;2023-01-26T04:54:25;23.43;;;10.73;;
46363;SDS011;32071;49.036;9.344;2023-01-26T04:56:51;25.27;;;11.30;;
46363;SDS011;32071;49.036;9.344;2023-01-26T04:59:16;26.17;;;11.83;;
46363;SDS011;32071;49.036;9.344;2023-01-26T05:01:42;22.23;;;11.23;;
46363;SDS011;32071;49.036;9.344;2023-01-26T05:04:09;24.27;;;12.37;;
46363;SDS011;32071;49.036;9.344;2023-01-26T05:06:37;25.27;;;11.23;;
46363;SDS011;32071;49.036;9.344;2023-01-26T05:09:03;27.77;;;11.50;;
46363;SDS011;32071;49.036;9.344;2023-01-26T05:11:29;33.20;;;12.63;;
46363;SDS011;32071;49.036;9.344;2023-01-26T05:13:54;26.23;;;12.10;;
46363;SDS011;32071;49.036;9.344;2023-01-26T05:16:20;24.00;;;11.93;;
46363;SDS011;32071;49.036;9.344;2023-01-26T05:18:46;22.73;;;10.03;;
46363;SDS011;32071;49.036;9.344;2023-01-26T05:21:11;21.20;;;10.30;;
46363;SDS011;32071;49.036;9.344;2023-01-26T05:23:37;25.27;;;11.90;;
46363;SDS011;32071;49.036;9.344;2023-01-26T05:26:03;18.80;;;9.37;;
46363;SDS011;32071;49.036;9.344;2023-01-26T05:28:29;23.07;;;10.27;;
46363;SDS011;32071;49.036;9.344;2023-01-26T05:30:54;24.60;;;10.40;;
46363;SDS011;32071;49.036;9.344;2023-01-26T05:33:21;22.20;;;9.97;;
46363;SDS011;32071;49.036;9.344;2023-01-26T05:35:47;16.20;;;8.47;;
46363;SDS011;32071;49.036;9.344;2023-01-26T05:38:13;22.23;;;9.67;;
46363;SDS011;32071;49.036;9.344;2023-01-26T05:40:39;26.37;;;10.70;;
46363;SDS011;32071;49.036;9.344;2023-01-26T05:43:05;30.13;;;11.70;;
46363;SDS011;32071;49.036;9.344;2023-01-26T05:45:32;21.67;;;10.10;;
46363;SDS011;32071;49.036;9.344;2023-01-26T05:47:58;24.03;;;10.27;;
46363;SDS011;32071;49.036;9.344;2023-01-26T05:50:24;22.27;;;9.70;;
46363;SDS011;32071;49.036;9.344;2023-01-26T05:52:49;21.40;;;9.73;;
46363;SDS011;32071;49.036;9.344;2023-01-26T05:55:15;21.03;;;9.27;;
46363;SDS011;32071;49.036;9.344;2023-01-26T05:57:41;20.77;;;8.33;;
46363;SDS011;32071;49.036;9.344;2023-01-26T06:00:06;22.87;;;9.53;;
46363;SDS011;32071;49.036;9.344;2023-01-26T06:02:33;26.67;;;10.40;;
46363;SDS011;32071;49.036;9.344;2023-01-26T06:04:58;22.23;;;10.17;;
46363;SDS011;32071;49.036;9.344;2023-01-26T06:07:24;20.50;;;9.10;;
46363;SDS011;32071;49.036;9.344;2023-01-26T06:09:50;18.70;;;8.03;;
46363;SDS011;32071;49.036;9.344;2023-01-26T06:12:17;17.63;;;8.73;;
46363;SDS011;32071;49.036;9.344;2023-01-26T06:14:43;17.27;;;7.50;;
46363;SDS011;32071;49.036;9.344;2023-01-26T06:17:10;18.10;;;8.33;;
46363;SDS011;32071;49.036;9.344;2023-01-26T06:19:36;16.87;;;8.07;;
46363;SDS011;32071;49.036;9.344;2023-01-26T06:22:02;14.67;;;7.10;;
46363;SDS011;32071;49.036;9.344;2023-01-26T06:24:28;17.77;;;7.93;;
46363;SDS011;32071;49.036;9.344;2023-01-26T06:26:54;19.00;;;8.20;;
46363;SDS011;32071;49.036;9.344;2023-01-26T06:29:19;19.40;;;9.20;;
46363;SDS011;32071;49.036;9.344;2023-01-26T06:31:46;23.93;;;9.97;;
46363;SDS011;32071;49.036;9.344;2023-01-26T06:34:11;21.77;;;9.17;;
46363;SDS011;32071;49.036;9.344;2023-01-26T06:36:37;23.00;;;9.70;;
46363;SDS011;32071;49.036;9.344;2023-01-26T06:39:02;20.80;;;9.10;;
46363;SDS011;32071;49.036;9.344;2023-01-26T06:41:28;18.13;;;8.37;;
46363;SDS011;32071;49.036;9.344;2023-01-26T06:43:54;22.40;;;8.77;;
46363;SDS011;32071;49.036;9.344;2023-01-26T06:46:19;18.70;;;9.20;;
46363;SDS011;32071;49.036;9.344;2023-01-26T06:48:45;16.90;;;7.47;;
46363;SDS011;32071;49.036;9.344;2023-01-26T06:53:41;18.67;;;8.60;;
46363;SDS011;32071;49.036;9.344;2023-01-26T06:56:13;21.60;;;7.90;;
46363;SDS011;32071;49.036;9.344;2023-01-26T06:58:40;16.70;;;8.10;;
46363;SDS011;32071;49.036;9.344;2023-01-26T07:01:05;19.07;;;7.63;;
46363;SDS011;32071;49.036;9.344;2023-01-26T07:03:31;14.63;;;7.47;;
46363;SDS011;32071;49.036;9.344;2023-01-26T07:05:57;18.80;;;9.30;;
46363;SDS011;32071;49.036;9.344;2023-01-26T07:08:22;18.20;;;8.00;;
46363;SDS011;32071;49.036;9.344;2023-01-26T07:10:48;14.33;;;7.00;;
46363;SDS011;32071;49.036;9.344;2023-01-26T07:13:14;21.10;;;8.43;;
46363;SDS011;32071;49.036;9.344;2023-01-26T07:15:40;17.10;;;9.60;;
46363;SDS011;32071;49.036;9.344;2023-01-26T07:18:06;18.13;;;11.10;;
46363;SDS011;32071;49.036;9.344;2023-01-26T07:20:31;26.43;;;9.37;;
46363;SDS011;32071;49.036;9.344;2023-01-26T07:23:00;19.10;;;9.23;;
46363;SDS011;32071;49.036;9.344;2023-01-26T07:25:25;23.50;;;9.77;;
46363;SDS011;32071;49.036;9.344;2023-01-26T07:27:58;19.60;;;9.60;;
46363;SDS011;32071;49.036;9.344;2023-01-26T07:30:24;20.70;;;8.70;;
46363;SDS011;32071;49.036;9.344;2023-01-26T07:32:51;45.43;;;21.50;;
46363;SDS011;32071;49.036;9.344;2023-01-26T07:35:16;22.37;;;10.17;;
46363;SDS011;32071;49.036;9.344;2023-01-26T07:37:42;19.60;;;9.03;;
46363;SDS011;32071;49.036;9.344;2023-01-26T07:40:08;21.10;;;9.87;;
46363;SDS011;32071;49.036;9.344;2023-01-26T07:42:34;20.03;;;9.37;;
46363;SDS011;32071;49.036;9.344;2023-01-26T07:45:00;18.73;;;8.97;;
46363;SDS011;32071;49.036;9.344;2023-01-26T07:47:25;18.33;;;8.17;;
46363;SDS011;32071;49.036;9.344;2023-01-26T07:49:51;14.50;;;7.90;;
46363;SDS011;32071;49.036;9.344;2023-01-26T07:52:17;16.70;;;7.53;;
46363;SDS011;32071;49.036;9.344;2023-01-26T07:54:42;18.90;;;9.00;;
46363;SDS011;32071;49.036;9.344;2023-01-26T07:57:08;20.83;;;9.23;;
46363;SDS011;32071;49.036;9.344;2023-01-26T07:59:33;17.00;;;8.77;;
46363;SDS011;32071;49.036;9.344;2023-01-26T08:01:59;15.00;;;7.13;;
46363;SDS011;32071;49.036;9.344;2023-01-26T08:04:25;19.93;;;8.83;;
46363;SDS011;32071;49.036;9.344;2023-01-26T08:06:51;15.43;;;8.53;;
46363;SDS011;32071;49.036;9.344;2023-01-26T08:09:16;24.90;;;10.07;;
46363;SDS011;32071;49.036;9.344;2023-01-26T08:11:42;18.77;;;9.00;;
46363;SDS011;32071;49.036;9.344;2023-01-26T08:14:07;21.33;;;9.80;;
46363;SDS011;32071;49.036;9.344;2023-01-26T08:16:33;16.43;;;7.87;;
46363;SDS011;32071;49.036;9.344;2023-01-26T08:18:59;20.43;;;9.80;;
46363;SDS011;32071;49.036;9.344;2023-01-26T08:21:24;19.73;;;9.13;;
46363;SDS011;32071;49.036;9.344;2023-01-26T08:23:50;20.27;;;8.37;;
46363;SDS011;32071;49.036;9.344;2023-01-26T08:26:16;17.43;;;8.50;;
46363;SDS011;32071;49.036;9.344;2023-01-26T08:28:43;20.30;;;9.23;;
46363;SDS011;32071;49.036;9.344;2023-01-26T08:31:10;15.87;;;8.40;;
46363;SDS011;32071;49.036;9.344;2023-01-26T08:33:38;20.77;;;9.10;;
46363;SDS011;32071;49.036;9.344;2023-01-26T08:36:06;20.73;;;8.00;;
46363;SDS011;32071;49.036;9.344;2023-01-26T08:38:34;18.57;;;8.03;;
46363;SDS011;32071;49.036;9.344;2023-01-26T08:41:00;18.23;;;7.73;;
46363;SDS011;32071;49.036;9.344;2023-01-26T08:43:26;30.20;;;7.50;;
46363;SDS011;32071;49.036;9.344;2023-01-26T08:45:52;16.97;;;7.53;;
46363;SDS011;32071;49.036;9.344;2023-01-26T08:48:18;16.73;;;7.83;;
46363;SDS011;32071;49.036;9.344;2023-01-26T08:50:44;17.93;;;8.80;;
46363;SDS011;32071;49.036;9.344;2023-01-26T08:53:10;18.20;;;8.23;;
46363;SDS011;32071;49.036;9.344;2023-01-26T08:55:35;15.33;;;7.90;;
46363;SDS011;32071;49.036;9.344;2023-01-26T08:58:01;20.47;;;9.87;;
46363;SDS011;32071;49.036;9.344;2023-01-26T09:00:27;12.30;;;7.83;;
46363;SDS011;32071;49.036;9.344;2023-01-26T09:02:59;20.40;;;8.73;;
46363;SDS011;32071;49.036;9.344;2023-01-26T09:05:27;16.07;;;8.20;;
46363;SDS011;32071;49.036;9.344;2023-01-26T09:07:56;15.40;;;7.70;;
46363;SDS011;32071;49.036;9.344;2023-01-26T09:10:22;16.67;;;8.70;;
46363;SDS011;32071;49.036;9.344;2023-01-26T09:12:48;16.33;;;8.10;;
46363;SDS011;32071;49.036;9.344;2023-01-26T09:15:14;17.20;;;8.40;;
46363;SDS011;32071;49.036;9.344;2023-01-26T09:17:40;23.23;;;9.77;;
46363;SDS011;32071;49.036;9.344;2023-01-26T09:20:07;24.13;;;8.83;;
46363;SDS011;32071;49.036;9.344;2023-01-26T09:22:34;22.70;;;10.30;;
46363;SDS011;32071;49.036;9.344;2023-01-26T09:24:59;17.37;;;9.30;;
46363;SDS011;32071;49.036;9.344;2023-01-26T09:27:28;23.43;;;11.27;;
46363;SDS011;32071;49.036;9.344;2023-01-26T09:29:54;23.03;;;11.80;;
46363;SDS011;32071;49.036;9.344;2023-01-26T09:32:20;21.63;;;10.10;;
46363;SDS011;32071;49.036;9.344;2023-01-26T09:34:46;18.00;;;8.70;;
46363;SDS011;32071;49.036;9.344;2023-01-26T09:37:12;20.77;;;8.70;;
46363;SDS011;32071;49.036;9.344;2023-01-26T09:39:38;22.47;;;9.40;;
46363;SDS011;32071;49.036;9.344;2023-01-26T09:44:39;21.80;;;9.63;;
46363;SDS011;32071;49.036;9.344;2023-01-26T09:50:23;20.33;;;9.73;;
46363;SDS011;32071;49.036;9.344;2023-01-26T09:53:01;25.57;;;10.83;;
46363;SDS011;32071;49.036;9.344;2023-01-26T09:55:30;24.23;;;11.20;;
46363;SDS011;32071;49.036;9.344;2023-01-26T09:58:00;27.10;;;12.33;;
46363;SDS011;32071;49.036;9.344;2023-01-26T10:00:39;19.07;;;8.93;;
46363;SDS011;32071;49.036;9.344;2023-01-26T10:03:23;25.57;;;10.20;;
46363;SDS011;32071;49.036;9.344;2023-01-26T10:08:26;25.30;;;11.40;;
46363;SDS011;32071;49.036;9.344;2023-01-26T10:10:57;24.40;;;10.97;;
46363;SDS011;32071;49.036;9.344;2023-01-26T10:13:25;21.97;;;10.10;;
46363;SDS011;32071;49.036;9.344;2023-01-26T10:15:59;23.70;;;10.50;;
46363;SDS011;32071;49.036;9.344;2023-01-26T10:18:30;26.43;;;10.03;;
46363;SDS011;32071;49.036;9.344;2023-01-26T10:21:03;20.87;;;9.90;;
46363;SDS011;32071;49.036;9.344;2023-01-26T10:23:32;22.17;;;9.50;;
46363;SDS011;32071;49.036;9.344;2023-01-26T10:26:12;26.17;;;10.37;;
46363;SDS011;32071;49.036;9.344;2023-01-26T10:28:47;21.57;;;9.83;;
46363;SDS011;32071;49.036;9.344;2023-01-26T10:31:16;19.23;;;8.13;;
46363;SDS011;32071;49.036;9.344;2023-01-26T10:33:57;20.67;;;9.63;;
46363;SDS011;32071;49.036;9.344;2023-01-26T10:36:30;21.33;;;9.23;;
46363;SDS011;32071;49.036;9.344;2023-01-26T10:39:06;22.27;;;9.97;;
46363;SDS011;32071;49.036;9.344;2023-01-26T10:41:33;20.63;;;9.03;;
46363;SDS011;32071;49.036;9.344;2023-01-26T10:44:09;23.67;;;9.17;;
46363;SDS011;32071;49.036;9.344;2023-01-26T10:49:50;17.97;;;8.03;;
46363;SDS011;32071;49.036;9.344;2023-01-26T10:54:46;17.40;;;7.43;;
46363;SDS011;32071;49.036;9.344;2023-01-26T10:57:36;17.80;;;8.27;;
46363;SDS011;32071;49.036;9.344;2023-01-26T11:02:51;17.27;;;7.83;;
46363;SDS011;32071;49.036;9.344;2023-01-26T11:05:24;16.77;;;7.70;;
46363;SDS011;32071;49.036;9.344;2023-01-26T11:07:52;19.30;;;8.43;;
46363;SDS011;32071;49.036;9.344;2023-01-26T11:10:33;16.70;;;7.37;;
46363;SDS011;32071;49.036;9.344;2023-01-26T11:15:44;14.83;;;8.33;;
46363;SDS011;32071;49.036;9.344;2023-01-26T11:18:18;14.77;;;6.70;;
46363;SDS011;32071;49.036;9.344;2023-01-26T11:26:23;13.53;;;7.40;;
46363;SDS011;32071;49.036;9.344;2023-01-26T11:35:03;18.20;;;7.30;;
46363;SDS011;32071;49.036;9.344;2023-01-26T11:38:20;15.60;;;7.20;;
46363;SDS011;32071;49.036;9.344;2023-01-26T11:41:02;19.13;;;8.13;;
46363;SDS011;32071;49.036;9.344;2023-01-26T11:43:48;14.93;;;7.00;;
46363;SDS011;32071;49.036;9.344;2023-01-26T11:46:25;15.90;;;6.83;;
46363;SDS011;32071;49.036;9.344;2023-01-26T11:54:34;14.50;;;7.00;;
46363;SDS011;32071;49.036;9.344;2023-01-26T11:57:16;14.67;;;6.40;;
46363;SDS011;32071;49.036;9.344;2023-01-26T11:59:56;13.80;;;6.30;;
46363;SDS011;32071;49.036;9.344;2023-01-26T12:04:56;12.37;;;6.43;;
46363;SDS011;32071;49.036;9.344;2023-01-26T12:07:33;10.70;;;5.37;;
46363;SDS011;32071;49.036;9.344;2023-01-26T12:10:15;14.27;;;5.47;;
46363;SDS011;32071;49.036;9.344;2023-01-26T12:12:48;11.70;;;5.10;;
46363;SDS011;32071;49.036;9.344;2023-01-26T12:15:26;14.97;;;6.00;;
46363;SDS011;32071;49.036;9.344;2023-01-26T12:17:58;13.70;;;5.90;;
46363;SDS011;32071;49.036;9.344;2023-01-26T12:20:49;9.47;;;4.60;;
46363;SDS011;32071;49.036;9.344;2023-01-26T12:26:09;12.40;;;5.47;;
46363;SDS011;32071;49.036;9.344;2023-01-26T12:28:46;13.53;;;5.20;;
46363;SDS011;32071;49.036;9.344;2023-01-26T12:31:53;11.23;;;5.40;;
46363;SDS011;32071;49.036;9.344;2023-01-26T12:34:32;10.57;;;5.50;;
46363;SDS011;32071;49.036;9.344;2023-01-26T12:39:46;11.57;;;5.37;;
46363;SDS011;32071;49.036;9.344;2023-01-26T12:44:49;11.90;;;5.87;;
46363;SDS011;32071;49.036;9.344;2023-01-26T12:47:23;15.20;;;6.90;;
46363;SDS011;32071;49.036;9.344;2023-01-26T12:49:56;10.00;;;6.23;;
46363;SDS011;32071;49.036;9.344;2023-01-26T12:52:45;16.10;;;7.30;;
46363;SDS011;32071;49.036;9.344;2023-01-26T12:55:28;8.30;;;5.23;;
46363;SDS011;32071;49.036;9.344;2023-01-26T12:58:02;11.07;;;5.30;;
46363;SDS011;32071;49.036;9.344;2023-01-26T13:00:35;9.87;;;6.33;;
46363;SDS011;32071;49.036;9.344;2023-01-26T13:03:04;8.70;;;4.63;;
46363;SDS011;32071;49.036;9.344;2023-01-26T13:05:53;8.13;;;4.50;;
46363;SDS011;32071;49.036;9.344;2023-01-26T13:11:06;13.07;;;5.33;;
46363;SDS011;32071;49.036;9.344;2023-01-26T13:13:34;9.07;;;5.77;;
46363;SDS011;32071;49.036;9.344;2023-01-26T13:18:46;8.30;;;4.20;;
46363;SDS011;32071;49.036;9.344;2023-01-26T13:21:26;13.10;;;6.43;;
46363;SDS011;32071;49.036;9.344;2023-01-26T13:29:21;10.47;;;4.40;;
46363;SDS011;32071;49.036;9.344;2023-01-26T13:40:19;10.57;;;4.57;;
46363;SDS011;32071;49.036;9.344;2023-01-26T13:42:51;8.07;;;4.13;;
46363;SDS011;32071;49.036;9.344;2023-01-26T13:48:29;8.33;;;4.83;;
46363;SDS011;32071;49.036;9.344;2023-01-26T13:51:05;12.23;;;4.83;;
46363;SDS011;32071;49.036;9.344;2023-01-26T13:53:36;10.13;;;5.50;;
46363;SDS011;32071;49.036;9.344;2023-01-26T13:56:06;10.77;;;5.40;;
46363;SDS011;32071;49.036;9.344;2023-01-26T13:58:47;8.10;;;4.60;;
46363;SDS011;32071;49.036;9.344;2023-01-26T14:01:13;8.17;;;4.47;;
46363;SDS011;32071;49.036;9.344;2023-01-26T14:03:40;10.57;;;5.00;;
46363;SDS011;32071;49.036;9.344;2023-01-26T14:06:09;9.50;;;4.83;;
46363;SDS011;32071;49.036;9.344;2023-01-26T14:08:45;12.57;;;5.57;;
46363;SDS011;32071;49.036;9.344;2023-01-26T14:11:19;12.07;;;5.70;;
46363;SDS011;32071;49.036;9.344;2023-01-26T14:13:52;10.17;;;5.10;;
46363;SDS011;32071;49.036;9.344;2023-01-26T14:16:24;9.00;;;5.23;;
46363;SDS011;32071;49.036;9.344;2023-01-26T14:26:58;11.83;;;5.00;;
46363;SDS011;32071;49.036;9.344;2023-01-26T14:29:25;12.37;;;6.17;;
46363;SDS011;32071;49.036;9.344;2023-01-26T14:31:53;10.03;;;5.13;;
46363;SDS011;32071;49.036;9.344;2023-01-26T14:34:24;13.20;;;4.87;;
46363;SDS011;32071;49.036;9.344;2023-01-26T14:37:04;12.53;;;5.60;;
46363;SDS011;32071;49.036;9.344;2023-01-26T14:39:30;12.53;;;5.37;;
46363;SDS011;32071;49.036;9.344;2023-01-26T14:41:56;10.13;;;5.13;;
46363;SDS011;32071;49.036;9.344;2023-01-26T14:44:23;10.60;;;5.53;;
46363;SDS011;32071;49.036;9.344;2023-01-26T14:49:25;10.10;;;5.90;;
46363;SDS011;32071;49.036;9.344;2023-01-26T14:52:10;9.70;;;4.80;;
46363;SDS011;32071;49.036;9.344;2023-01-26T14:54:48;11.60;;;5.33;;
46363;SDS011;32071;49.036;9.344;2023-01-26T14:57:16;12.00;;;5.40;;
46363;SDS011;32071;49.036;9.344;2023-01-26T14:59:45;11.07;;;5.97;;
46363;SDS011;32071;49.036;9.344;2023-01-26T15:04:59;11.70;;;5.13;;
46363;SDS011;32071;49.036;9.344;2023-01-26T15:07:45;13.70;;;6.37;;
46363;SDS011;32071;49.036;9.344;2023-01-26T15:10:33;11.87;;;5.53;;
46363;SDS011;32071;49.036;9.344;2023-01-26T15:16:03;15.70;;;5.67;;
46363;SDS011;32071;49.036;9.344;2023-01-26T15:18:32;12.90;;;6.47;;
46363;SDS011;32071;49.036;9.344;2023-01-26T15:23:33;12.67;;;5.33;;
46363;SDS011;32071;49.036;9.344;2023-01-26T15:26:07;13.33;;;5.83;;
46363;SDS011;32071;49.036;9.344;2023-01-26T15:28:53;15.37;;;5.93;;
46363;SDS011;32071;49.036;9.344;2023-01-26T15:31:35;13.70;;;5.60;;
46363;SDS011;32071;49.036;9.344;2023-01-26T15:34:02;14.37;;;5.83;;
46363;SDS011;32071;49.036;9.344;2023-01-26T15:39:15;12.37;;;6.10;;
46363;SDS011;32071;49.036;9.344;2023-01-26T15:41:46;12.83;;;6.60;;
46363;SDS011;32071;49.036;9.344;2023-01-26T15:44:31;11.90;;;6.93;;
46363;SDS011;32071;49.036;9.344;2023-01-26T15:46:56;16.97;;;6.80;;
46363;SDS011;32071;49.036;9.344;2023-01-26T15:49:23;13.40;;;6.07;;
46363;SDS011;32071;49.036;9.344;2023-01-26T15:51:48;13.00;;;6.60;;
46363;SDS011;32071;49.036;9.344;2023-01-26T15:54:14;19.83;;;10.43;;
46363;SDS011;32071;49.036;9.344;2023-01-26T15:56:39;20.57;;;8.40;;
46363;SDS011;32071;49.036;9.344;2023-01-26T15:59:05;17.90;;;8.97;;
46363;SDS011;32071;49.036;9.344;2023-01-26T16:01:31;19.33;;;9.60;;
46363;SDS011;32071;49.036;9.344;2023-01-26T16:03:56;20.03;;;10.10;;
46363;SDS011;32071;49.036;9.344;2023-01-26T16:06:23;15.87;;;8.10;;
46363;SDS011;32071;49.036;9.344;2023-01-26T16:08:50;23.93;;;9.63;;
46363;SDS011;32071;49.036;9.344;2023-01-26T16:11:16;22.00;;;9.90;;
46363;SDS011;32071;49.036;9.344;2023-01-26T16:13:42;17.47;;;8.67;;
46363;SDS011;32071;49.036;9.344;2023-01-26T16:16:10;20.37;;;10.33;;
46363;SDS011;32071;49.036;9.344;2023-01-26T16:18:37;20.83;;;11.43;;
46363;SDS011;32071;49.036;9.344;2023-01-26T16:21:12;26.27;;;13.73;;
46363;SDS011;32071;49.036;9.344;2023-01-26T16:23:45;23.50;;;11.93;;
46363;SDS011;32071;49.036;9.344;2023-01-26T16:26:12;20.80;;;10.77;;